Weather at William Creek Airport

Public forecast

Using degrees Celsius for public forecast. Weather courtesy of forecast.io.

Closest aviation weather report (METAR) to William Creek Airport

Closest report is Coober Pedy Airport, 85.5 nm (158.4 km) W. Retrieved 2021/06/13 11:00 UTC (51 minutes ago):

YCBP 131100Z AUTO 17005KT 9999 // SCT076 SCT087 SCT110 16/13 Q1012

Closest aviation forecast (TAF) to William Creek Airport

Closest forecast is Woomera Airfield, 136.6 nm (253.0 km) S. Retrieved 2021/06/13 06:00 UTC (6 hours ago):

TAF YPWR 130525Z 1306/1400 02014KT 9999 -SHRA FEW050 FM131500 01007KT 9999 -SHRA FEW050